Time;durP1;ratioP1;P1;durP2;ratioP2;P2;SDS_P1;SDS_P2;PMS_P1;PMS_P2;Temp;Humidity;BMP_temperature;BMP_pressure;BME280_temperature;BME280_humidity;BME280_pressure;Samples;Min_cycle;Max_cycle;Signal;HPM_P1;HPM_P2
2021/07/21 00:00:29;;;;;;;26.20;18.37;;;14.30;99.90;;;15.52;59.22;94512.78;5012091;28;20244;-71
2021/07/21 00:02:56;;;;;;;24.23;17.47;;;14.80;99.90;;;15.38;59.33;94515.25;5026383;28;20212;-71
2021/07/21 00:05:27;;;;;;;20.63;16.37;;;15.00;99.90;;;15.38;59.39;94517.13;5029910;28;20199;-70
2021/07/21 00:07:55;;;;;;;21.23;16.80;;;14.90;99.90;;;15.34;59.27;94513.44;5014912;28;20193;-70
2021/07/21 00:10:25;;;;;;;23.17;18.27;;;14.90;99.90;;;15.35;59.52;94515.81;5040168;28;20202;-71
2021/07/21 00:15:46;;;;;;;25.67;17.93;;;13.90;99.90;;;15.27;59.92;94513.75;5027257;28;20234;-70
2021/07/21 00:18:22;;;;;;;22.53;17.87;;;14.10;99.90;;;15.27;59.91;94508.41;5037964;28;20371;-71
2021/07/21 00:20:49;;;;;;;22.00;18.00;;;14.10;99.90;;;15.23;60.06;94502.03;5022530;28;20208;-71
2021/07/21 00:23:21;;;;;;;21.27;17.33;;;14.10;99.90;;;15.23;59.94;94511.91;5021859;28;20229;-70
2021/07/21 00:25:49;;;;;;;23.60;17.80;;;14.10;99.90;;;15.16;60.57;94509.56;5013625;28;20838;-71
2021/07/21 00:28:15;;;;;;;22.17;18.10;;;14.00;99.90;;;15.27;60.05;94516.44;5011150;28;20196;-71
2021/07/21 00:30:42;;;;;;;24.40;18.90;;;14.10;99.90;;;15.29;60.47;94502.78;5024591;28;20204;-71
2021/07/21 00:33:11;;;;;;;26.60;19.20;;;14.10;99.90;;;15.25;60.78;94502.53;5023938;28;20591;-69
2021/07/21 00:35:37;;;;;;;23.60;18.47;;;14.10;99.90;;;15.20;60.72;94504.47;5023454;28;20257;-71
2021/07/21 00:38:03;;;;;;;25.20;18.43;;;14.00;99.90;;;15.18;60.69;94515.41;4990314;28;20980;-71
2021/07/21 00:40:32;;;;;;;25.20;18.63;;;14.00;99.90;;;15.17;61.01;94516.50;5027157;28;20188;-71
2021/07/21 00:43:01;;;;;;;25.73;18.43;;;14.00;99.90;;;15.23;60.84;94509.25;5005663;28;20220;-70
2021/07/21 00:45:32;;;;;;;24.67;18.80;;;14.00;99.90;;;15.27;61.10;94516.44;5026838;28;20280;-71
2021/07/21 00:47:58;;;;;;;22.80;18.00;;;14.10;99.90;;;15.29;61.08;94510.78;5023763;28;20281;-70
2021/07/21 00:50:27;;;;;;;23.33;18.33;;;14.10;99.90;;;15.22;61.18;94508.44;5009897;28;20766;-70
2021/07/21 00:52:57;;;;;;;23.73;18.37;;;14.10;99.90;;;15.14;61.39;94514.34;5021151;28;20824;-71
2021/07/21 00:55:24;;;;;;;25.17;18.43;;;14.00;99.90;;;15.10;61.35;94509.88;5011730;28;20191;-71
2021/07/21 00:57:50;;;;;;;24.90;19.00;;;13.90;99.90;;;15.01;61.48;94517.66;5028074;28;20185;-71
2021/07/21 01:00:18;;;;;;;22.50;17.73;;;13.90;99.90;;;15.01;61.48;94512.31;5006232;28;20235;-70
2021/07/21 01:02:51;;;;;;;26.03;19.40;;;13.90;99.90;;;14.95;61.72;94510.75;5026258;28;20251;-71
2021/07/21 01:05:30;;;;;;;24.20;18.43;;;13.80;99.90;;;14.90;61.74;94510.78;5029699;28;20625;-70
2021/07/21 01:07:56;;;;;;;27.97;19.00;;;13.80;99.90;;;14.82;61.93;94501.50;5053797;28;20195;-71
2021/07/21 01:10:27;;;;;;;23.07;18.77;;;13.70;99.90;;;14.86;62.00;94502.53;5004058;28;20187;-71
2021/07/21 01:13:15;;;;;;;24.37;18.80;;;13.70;99.90;;;14.82;62.13;94503.34;5025447;28;20216;-71
2021/07/21 01:16:00;;;;;;;24.40;18.33;;;13.70;99.90;;;14.80;62.04;94494.84;5010540;28;20193;-71
2021/07/21 01:18:46;;;;;;;26.83;18.97;;;13.70;99.90;;;14.82;62.32;94512.16;5011946;28;20275;-71
2021/07/21 01:21:30;;;;;;;24.67;19.27;;;13.70;99.90;;;14.80;62.17;94503.66;5003944;28;20231;-71
2021/07/21 01:24:19;;;;;;;24.30;18.97;;;13.70;99.90;;;14.84;62.24;94507.34;5017349;28;20216;-71
2021/07/21 01:27:21;;;;;;;25.10;18.47;;;13.60;99.90;;;14.80;62.39;94492.16;5036988;28;20200;-71
2021/07/21 01:29:53;;;;;;;22.73;18.80;;;13.60;99.90;;;14.76;62.81;94502.59;5019807;28;20223;-71
2021/07/21 01:32:23;;;;;;;27.33;19.43;;;13.60;99.90;;;14.75;62.79;94497.53;5025857;28;20296;-71
2021/07/21 01:35:00;;;;;;;24.77;18.77;;;13.60;99.90;;;14.69;62.80;94506.63;5002045;28;20224;-71
2021/07/21 01:37:27;;;;;;;26.73;18.77;;;13.50;99.90;;;14.60;63.05;94498.41;5058213;28;20188;-71
2021/07/21 01:40:00;;;;;;;28.30;18.57;;;13.50;99.90;;;14.61;62.96;94505.31;5030560;28;20200;-71
2021/07/21 01:42:28;;;;;;;26.23;19.63;;;13.50;99.90;;;14.58;62.90;94510.41;5025942;28;20208;-71
2021/07/21 01:45:00;;;;;;;27.53;19.53;;;13.40;99.90;;;14.53;62.86;94513.91;5026502;28;20519;-71
2021/07/21 01:47:33;;;;;;;25.33;18.83;;;13.40;99.90;;;14.51;63.39;94499.25;5024720;28;20200;-70
2021/07/21 01:50:08;;;;;;;25.90;18.47;;;13.40;99.90;;;14.49;63.30;94510.19;5022668;28;20287;-73
2021/07/21 01:52:34;;;;;;;24.60;19.03;;;13.40;99.90;;;14.48;63.39;94500.59;5026202;28;20191;-71
2021/07/21 01:55:05;;;;;;;26.13;18.90;;;13.40;99.90;;;14.51;63.34;94504.56;5023552;28;20227;-72
2021/07/21 01:57:32;;;;;;;25.90;18.80;;;12.90;99.90;;;14.36;63.60;94498.25;5055385;28;20597;-72
2021/07/21 02:00:03;;;;;;;26.77;18.93;;;13.30;99.90;;;14.31;63.57;94492.09;5010222;28;20200;-70
2021/07/21 02:02:34;;;;;;;23.60;18.53;;;13.20;99.90;;;14.36;63.56;94498.25;5038057;28;20742;-71
2021/07/21 02:05:03;;;;;;;24.73;18.80;;;13.30;99.90;;;14.30;63.40;94491.28;5018931;28;20204;-70
2021/07/21 02:07:30;;;;;;;26.30;19.67;;;13.70;99.90;;;14.29;63.95;94500.38;5041034;28;20191;-71
2021/07/21 02:09:59;;;;;;;24.07;18.80;;;13.20;99.90;;;14.28;63.84;94490.78;5018575;28;20197;-70
2021/07/21 02:12:27;;;;;;;28.67;20.87;;;13.10;99.90;;;14.22;63.99;94486.53;5025640;28;20198;-72
2021/07/21 02:14:56;;;;;;;23.17;18.57;;;13.20;99.90;;;14.22;64.16;94497.19;5033662;28;20807;-72
2021/07/21 02:17:22;;;;;;;24.47;19.37;;;13.10;99.90;;;14.20;64.17;94495.88;5040054;28;20197;-72
2021/07/21 02:19:48;;;;;;;25.23;19.93;;;13.10;99.90;;;14.20;64.02;94491.31;5026429;28;20192;-73
2021/07/21 02:22:21;;;;;;;30.13;21.43;;;13.10;99.90;;;14.18;64.36;94503.34;5024558;28;20231;-71
2021/07/21 02:24:47;;;;;;;27.43;20.33;;;13.10;99.90;;;14.15;64.29;94491.34;5026338;28;20226;-72
2021/07/21 02:27:15;;;;;;;27.87;20.80;;;13.00;99.90;;;14.14;64.55;94494.28;5006720;28;20259;-72
2021/07/21 02:29:42;;;;;;;28.43;21.37;;;13.00;99.90;;;14.13;64.69;94498.03;5018876;28;20202;-73
2021/07/21 02:32:15;;;;;;;26.47;21.27;;;13.00;99.90;;;14.15;64.72;94496.69;5023687;28;20250;-70
2021/07/21 02:34:48;;;;;;;27.97;20.47;;;13.00;99.90;;;14.13;64.99;94498.03;5018985;28;20222;-71
2021/07/21 02:37:19;;;;;;;26.17;20.03;;;12.90;99.90;;;14.10;64.84;94499.34;5003705;28;20214;-73
2021/07/21 02:39:52;;;;;;;27.17;19.83;;;13.00;99.90;;;14.12;64.61;94494.56;5051445;28;20199;-72
2021/07/21 02:42:21;;;;;;;27.00;20.20;;;13.00;99.90;;;14.10;64.81;94488.69;5000309;28;20664;-73
2021/07/21 02:44:52;;;;;;;26.50;19.77;;;12.90;99.90;;;14.00;65.32;94491.38;5022838;28;20807;-73
2021/07/21 02:47:20;;;;;;;25.27;20.10;;;12.90;99.90;;;13.96;64.99;94493.03;5018855;28;20199;-73
2021/07/21 02:49:47;;;;;;;23.73;18.60;;;12.90;99.90;;;14.00;65.26;94496.72;5022565;28;20228;-71
2021/07/21 02:52:42;;;;;;;25.63;20.17;;;13.00;99.90;;;13.99;65.49;94497.81;5024024;28;20276;-72
2021/07/21 02:55:21;;;;;;;28.73;20.07;;;12.80;99.90;;;13.97;65.43;94489.25;5035149;28;20902;-73
2021/07/21 02:58:04;;;;;;;25.87;20.20;;;12.80;99.90;;;14.03;65.40;94488.22;5026471;28;20200;-73
2021/07/21 03:00:34;;;;;;;27.40;20.23;;;12.90;99.90;;;13.96;65.42;94486.88;5036721;28;20197;-73
2021/07/21 03:03:10;;;;;;;24.53;20.03;;;12.80;99.90;;;13.92;65.55;94491.97;5010570;28;20216;-71
2021/07/21 03:05:37;;;;;;;26.20;19.00;;;13.20;99.90;;;13.87;65.64;94489.28;5024356;28;20201;-73
2021/07/21 03:08:04;;;;;;;25.77;18.83;;;12.70;99.90;;;13.85;65.73;94492.25;5024225;28;20192;-71
2021/07/21 03:10:40;;;;;;;29.37;19.63;;;12.70;99.90;;;13.82;65.91;94497.31;5023862;28;20243;-74
2021/07/21 03:13:15;;;;;;;23.30;18.60;;;12.70;99.90;;;13.82;65.45;94495.44;5006378;28;20208;-71
2021/07/21 03:15:44;;;;;;;27.50;19.90;;;12.70;99.90;;;13.86;66.37;94504.50;5022187;28;20210;-69
2021/07/21 03:18:20;;;;;;;28.27;19.60;;;12.70;99.90;;;13.82;66.04;94499.97;5021686;28;20747;-71
2021/07/21 03:20:48;;;;;;;23.87;18.87;;;12.70;99.90;;;13.75;66.20;94499.44;5033274;28;20203;-71
2021/07/21 03:23:15;;;;;;;27.17;19.30;;;12.60;99.90;;;13.70;66.53;94497.56;5033602;28;20278;-71
2021/07/21 03:25:44;;;;;;;22.53;17.80;;;12.60;99.90;;;13.69;66.64;94498.66;5006878;28;20686;-71
2021/07/21 03:28:10;;;;;;;25.73;19.23;;;12.50;99.90;;;13.71;66.06;94490.38;5022517;28;20196;-72
2021/07/21 03:30:39;;;;;;;22.53;17.43;;;12.50;99.90;;;13.67;66.10;94492.00;5012895;28;20200;-71
2021/07/21 03:33:08;;;;;;;24.57;18.60;;;12.50;99.90;;;13.69;66.12;94500.53;5021192;28;20218;-70
2021/07/21 03:35:35;;;;;;;29.50;19.70;;;12.60;99.90;;;13.67;66.42;94495.44;5022905;28;20210;-72
2021/07/21 03:38:04;;;;;;;27.57;20.40;;;12.50;99.90;;;13.66;66.32;94498.41;5037798;28;20242;-71
2021/07/21 03:40:33;;;;;;;30.53;19.83;;;12.50;99.90;;;13.62;66.52;94500.00;5018285;28;20670;-71
2021/07/21 03:43:00;;;;;;;27.50;21.33;;;12.50;99.90;;;13.65;66.87;94491.47;5006242;28;20216;-71
2021/07/21 03:45:32;;;;;;;35.07;23.53;;;12.50;99.90;;;13.66;66.77;94498.41;5005832;28;20334;-71
2021/07/21 03:47:58;;;;;;;27.77;21.33;;;12.50;99.90;;;13.62;66.72;94495.47;5023390;28;20209;-71
2021/07/21 03:50:26;;;;;;;28.83;20.77;;;12.50;99.90;;;13.60;66.65;94499.44;4993361;28;20207;-70
2021/07/21 03:52:54;;;;;;;29.50;20.00;;;12.40;99.90;;;13.63;67.23;94510.38;5024491;28;20307;-71
2021/07/21 03:55:25;;;;;;;26.27;19.07;;;12.40;99.90;;;13.53;66.87;94515.69;5020484;28;20231;-71
2021/07/21 03:57:54;;;;;;;28.50;20.20;;;11.70;99.90;;;13.55;67.29;94518.13;5020614;28;20288;-70
2021/07/21 04:00:22;;;;;;;26.13;19.20;;;12.90;99.90;;;13.54;67.06;94522.63;5015436;28;20204;-71
2021/07/21 04:02:54;;;;;;;29.73;19.30;;;12.90;99.90;;;13.58;67.30;94520.25;5023329;28;20224;-70
2021/07/21 04:05:23;;;;;;;27.30;20.03;;;12.40;99.90;;;13.60;67.42;94526.88;5028807;28;20201;-70
2021/07/21 04:07:52;;;;;;;24.77;19.23;;;12.40;99.90;;;13.68;67.27;94517.56;5025116;28;20205;-70
2021/07/21 04:10:18;;;;;;;27.63;18.63;;;12.50;99.90;;;13.65;67.30;94518.91;5007253;28;20711;-70
2021/07/21 04:12:48;;;;;;;26.00;19.27;;;12.50;99.90;;;13.70;67.68;94528.75;5016061;28;20283;-69
2021/07/21 04:15:16;;;;;;;27.73;20.43;;;12.50;99.90;;;13.67;67.57;94532.75;5016195;28;20216;-70
2021/07/21 04:17:43;;;;;;;25.57;19.60;;;12.50;99.90;;;13.68;67.64;94545.00;5025016;28;20192;-71
2021/07/21 04:20:11;;;;;;;25.67;18.97;;;12.60;99.90;;;13.73;67.97;94544.22;5005525;28;20196;-69
2021/07/21 04:22:40;;;;;;;25.20;19.33;;;12.60;99.90;;;13.77;67.89;94555.91;5021629;28;20324;-71
2021/07/21 04:25:09;;;;;;;25.40;18.47;;;12.60;99.90;;;13.84;67.47;94551.13;5025072;28;20531;-70
2021/07/21 04:27:37;;;;;;;24.57;19.77;;;12.70;99.90;;;13.93;67.89;94560.19;5019781;28;20280;-70
2021/07/21 04:30:07;;;;;;;21.90;18.13;;;12.70;99.90;;;13.95;67.48;94558.03;5015874;28;20295;-71
2021/07/21 04:32:37;;;;;;;23.83;19.17;;;12.70;99.90;;;13.99;68.05;94558.31;5017468;28;20200;-69
2021/07/21 04:35:10;;;;;;;24.60;19.67;;;12.80;99.90;;;14.06;68.32;94566.81;5004959;28;20233;-71
2021/07/21 04:37:41;;;;;;;27.07;19.97;;;12.80;99.90;;;14.09;67.84;94560.94;5012494;28;20192;-71
2021/07/21 04:40:11;;;;;;;25.00;19.47;;;12.80;99.90;;;14.18;68.12;94567.31;5038432;28;20723;-71
2021/07/21 04:42:38;;;;;;;25.40;19.37;;;12.90;99.90;;;14.24;68.22;94558.25;5024394;28;20299;-70
2021/07/21 04:45:09;;;;;;;23.90;18.43;;;13.00;99.90;;;14.32;68.10;94565.69;5025676;28;20528;-71
2021/07/21 04:47:36;;;;;;;24.40;19.60;;;13.10;99.90;;;14.35;67.91;94563.31;5021205;28;20229;-72
2021/07/21 04:50:05;;;;;;;24.93;19.73;;;13.10;99.90;;;14.45;68.52;94569.69;5024069;28;20677;-71
2021/07/21 04:52:31;;;;;;;26.47;20.13;;;13.20;99.90;;;14.53;68.48;94572.59;5025540;28;20189;-69
2021/07/21 04:54:57;;;;;;;31.30;20.73;;;13.30;99.90;;;14.64;68.51;94576.81;5025711;28;20208;-71
2021/07/21 04:57:23;;;;;;;28.17;20.57;;;13.40;99.90;;;14.72;68.61;94572.78;5026817;28;20208;-71
2021/07/21 04:59:50;;;;;;;25.30;19.97;;;13.50;99.90;;;14.84;68.71;94584.72;5023264;28;20212;-71
2021/07/21 05:02:17;;;;;;;27.90;20.10;;;13.60;99.90;;;14.91;68.74;94573.00;5025565;28;20213;-70
2021/07/21 05:04:44;;;;;;;25.50;19.63;;;13.70;99.90;;;15.02;68.83;94579.84;5024531;28;20203;-71
2021/07/21 05:07:12;;;;;;;24.07;18.53;;;13.90;99.90;;;15.12;68.84;94585.94;5050302;28;20263;-70
2021/07/21 05:09:38;;;;;;;27.67;20.43;;;14.00;99.90;;;15.25;68.70;94576.50;5008932;28;20742;-71
2021/07/21 05:12:05;;;;;;;26.03;19.17;;;14.10;99.90;;;15.34;68.92;94589.00;5018817;28;20204;-71
2021/07/21 05:14:33;;;;;;;24.53;19.53;;;14.20;99.90;;;15.47;68.84;94589.47;5042032;28;20200;-72
2021/07/21 05:16:59;;;;;;;25.17;19.50;;;14.30;99.90;;;15.62;68.92;94587.53;5023777;28;20193;-71
2021/07/21 05:19:24;;;;;;;24.63;19.40;;;14.50;99.90;;;15.75;68.89;94588.75;5025441;28;20223;-71
2021/07/21 05:21:52;;;;;;;24.77;19.57;;;14.60;99.90;;;15.86;69.16;94595.63;5024185;28;20226;-71
2021/07/21 05:24:22;;;;;;;24.33;18.87;;;14.70;99.90;;;15.98;69.27;94593.41;5024470;28;20250;-72
2021/07/21 05:26:48;;;;;;;28.40;19.67;;;14.80;99.90;;;16.15;69.11;94598.34;5036652;28;20246;-71
2021/07/21 05:29:15;;;;;;;24.77;18.87;;;15.00;99.90;;;16.24;69.08;94586.75;5023309;28;20190;-73
2021/07/21 05:31:44;;;;;;;21.83;18.20;;;15.20;99.90;;;16.46;69.34;94593.47;5024892;28;20324;-72
2021/07/21 05:34:11;;;;;;;25.67;19.23;;;15.30;99.90;;;16.56;69.21;94602.22;5023395;28;20206;-71
2021/07/21 05:36:38;;;;;;;25.73;19.97;;;15.40;99.90;;;16.66;69.09;94603.97;5022184;28;20547;-69
2021/07/21 05:39:08;;;;;;;25.13;19.27;;;15.60;99.90;;;16.84;69.30;94605.94;5004212;28;20193;-72
2021/07/21 05:41:36;;;;;;;24.80;18.83;;;15.70;99.90;;;17.01;69.18;94608.13;5025433;28;20196;-72
2021/07/21 05:44:02;;;;;;;24.60;18.87;;;15.90;99.90;;;17.23;69.37;94608.38;5027231;28;20221;-72
2021/07/21 05:46:28;;;;;;;23.53;17.50;;;16.10;99.90;;;17.46;68.86;94607.53;5006936;28;20289;-71
2021/07/21 05:48:55;;;;;;;21.80;17.43;;;16.30;99.90;;;18.12;69.38;94634.19;5025311;28;20209;-72
2021/07/21 05:51:21;;;;;;;22.93;17.47;;;17.90;99.90;;;19.37;69.04;94653.69;5025633;28;20191;-72
2021/07/21 05:53:47;;;;;;;23.77;17.27;;;19.50;99.90;;;20.78;69.10;94645.00;5023894;28;20257;-71
2021/07/21 05:56:16;;;;;;;21.83;16.90;;;21.30;99.90;;;21.96;68.89;94639.50;5039309;28;20203;-72
2021/07/21 05:58:42;;;;;;;19.87;16.40;;;21.90;99.90;;;22.81;68.67;94645.16;5024615;28;20337;-72
2021/07/21 06:01:08;;;;;;;19.30;15.30;;;22.20;99.90;;;23.41;68.37;94640.31;5010002;28;20667;-71
2021/07/21 06:03:34;;;;;;;18.53;15.23;;;23.10;99.90;;;24.52;68.17;94641.44;5021005;28;20730;-73
2021/07/21 06:06:02;;;;;;;15.17;13.57;;;24.20;99.90;;;25.26;67.98;94602.50;5003970;28;20231;-74
2021/07/21 06:08:28;;;;;;;14.40;12.90;;;25.00;99.90;;;25.63;67.84;94626.94;5038426;28;20197;-73
2021/07/21 06:10:57;;;;;;;14.40;12.73;;;25.60;99.90;;;26.14;67.55;94626.16;5023647;28;20254;-73
2021/07/21 06:13:25;;;;;;;14.33;12.83;;;26.20;99.90;;;27.14;67.11;94651.47;5023223;28;20188;-73
2021/07/21 06:15:51;;;;;;;14.53;12.80;;;27.10;99.90;;;27.66;66.54;94588.56;5002420;28;20196;-74
2021/07/21 06:18:17;;;;;;;15.23;12.37;;;27.90;99.90;;;28.15;66.39;94643.41;5026221;28;20192;-74
2021/07/21 06:20:46;;;;;;;13.60;12.30;;;28.50;99.90;;;28.68;66.15;94645.31;5023893;28;20933;-74
2021/07/21 06:23:13;;;;;;;13.87;12.13;;;29.20;99.90;;;29.26;65.46;94624.16;5020929;28;20259;-74
2021/07/21 06:25:39;;;;;;;14.77;12.33;;;29.80;99.90;;;28.51;65.37;94551.03;5006960;28;20245;-75
2021/07/21 06:28:07;;;;;;;14.47;13.03;;;29.30;99.90;;;28.33;65.16;94579.91;5026224;28;20204;-70
2021/07/21 06:30:34;;;;;;;14.77;13.10;;;29.30;99.90;;;27.22;64.56;94618.63;5023999;28;20188;-70
2021/07/21 06:33:03;;;;;;;14.87;13.30;;;28.20;99.90;;;28.05;63.93;94644.72;5022638;28;20239;-71
2021/07/21 06:35:29;;;;;;;14.47;12.87;;;28.60;99.90;;;28.07;63.62;94614.41;5018985;28;20354;-74
2021/07/21 06:37:55;;;;;;;14.00;12.60;;;28.80;99.90;;;27.90;63.34;94604.69;5020008;28;20200;-74
2021/07/21 06:40:21;;;;;;;14.83;12.50;;;28.70;99.90;;;28.29;62.92;94630.88;5017911;28;20225;-73
2021/07/21 06:42:48;;;;;;;17.77;13.03;;;29.00;99.40;;;28.60;62.66;94629.94;5027828;28;20270;-77
2021/07/21 06:45:14;;;;;;;14.27;12.47;;;29.10;99.10;;;28.97;62.36;94606.50;5027816;28;20640;-73
2021/07/21 06:47:40;;;;;;;17.13;13.07;;;29.70;99.90;;;29.18;62.02;94611.50;5006427;28;20241;-75
2021/07/21 06:50:07;;;;;;;14.97;13.33;;;29.90;98.90;;;29.43;61.93;94610.03;5024518;28;20191;-75
2021/07/21 06:52:33;;;;;;;13.73;12.33;;;30.30;96.00;;;30.88;61.28;94641.31;5006411;28;20208;-74
2021/07/21 06:55:01;;;;;;;14.43;13.03;;;31.40;95.80;;;30.87;61.04;94654.22;5019017;28;20218;-75
2021/07/21 06:57:28;;;;;;;14.73;13.07;;;31.80;93.30;;;30.33;60.90;94695.75;5024361;28;20201;-74
2021/07/21 06:59:54;;;;;;;15.33;12.80;;;31.40;93.10;;;30.56;60.39;94645.63;5016126;28;20200;-73
2021/07/21 07:02:20;;;;;;;14.97;13.27;;;31.80;93.00;;;29.92;60.24;94623.66;5023248;28;20220;-75
2021/07/21 07:04:46;;;;;;;18.07;13.50;;;31.20;95.10;;;29.32;59.58;94621.91;5021066;28;20555;-76
2021/07/21 07:07:12;;;;;;;15.73;13.57;;;30.60;95.30;;;28.30;59.80;94680.75;5005889;28;20587;-74
2021/07/21 07:09:38;;;;;;;16.00;13.37;;;29.30;97.80;;;27.26;59.56;94564.28;5025733;28;20197;-75
2021/07/21 07:12:07;;;;;;;16.33;14.60;;;28.00;99.50;;;25.65;59.38;94570.38;5022471;28;20201;-76
2021/07/21 07:14:35;;;;;;;15.63;14.03;;;26.20;99.90;;;25.01;59.45;94626.09;5007532;28;20582;-75
2021/07/21 07:17:02;;;;;;;19.57;14.50;;;25.10;99.90;;;25.94;59.21;94673.31;5022940;28;20339;-74
2021/07/21 07:19:30;;;;;;;16.07;13.60;;;25.40;99.90;;;26.35;58.97;94672.22;5010076;28;20203;-74
2021/07/21 07:21:59;;;;;;;18.27;14.37;;;25.60;99.90;;;25.87;58.92;94597.81;4990212;28;20233;-75
2021/07/21 07:24:28;;;;;;;14.80;13.20;;;25.20;99.90;;;26.02;58.66;94642.50;5004610;28;20235;-74
2021/07/21 07:26:57;;;;;;;17.03;14.10;;;25.20;99.90;;;25.74;58.59;94645.16;5039621;28;20587;-74
2021/07/21 07:29:28;;;;;;;15.53;13.63;;;24.90;99.90;;;26.77;58.17;94730.56;5009122;28;20193;-75
2021/07/21 07:31:56;;;;;;;14.23;12.73;;;25.60;99.90;;;28.54;58.20;94724.91;5021326;28;20188;-74
2021/07/21 07:34:24;;;;;;;15.27;13.43;;;27.30;99.90;;;29.89;57.77;94713.84;5039707;28;20204;-75
2021/07/21 07:36:56;;;;;;;14.80;13.20;;;29.00;99.90;;;30.59;57.52;94702.38;5021620;28;20220;-74
2021/07/21 07:39:23;;;;;;;15.43;13.27;;;30.20;98.50;;;31.82;56.66;94701.00;5023633;28;20200;-73
2021/07/21 07:41:51;;;;;;;14.97;13.37;;;31.70;97.10;;;31.20;56.84;94680.03;5022329;28;20211;-74
2021/07/21 07:44:17;;;;;;;15.47;13.47;;;31.50;94.90;;;31.93;56.22;94726.56;5021550;28;20636;-74
2021/07/21 07:46:44;;;;;;;15.43;13.83;;;33.80;99.10;;;32.97;55.63;94715.09;4996232;28;20208;-74
2021/07/21 07:49:10;;;;;;;16.13;13.90;;;33.80;96.00;;;32.96;55.47;94656.59;5025031;28;20739;-74
2021/07/21 07:51:37;;;;;;;15.27;13.47;;;33.80;90.20;;;34.15;55.30;94695.69;5024590;28;20219;-75
2021/07/21 07:54:04;;;;;;;14.77;13.25;;;35.40;87.00;;;34.43;54.42;94629.53;5022590;28;20203;-74
2021/07/21 07:56:33;;;;;;;14.43;12.93;;;36.00;85.50;;;33.96;54.82;94529.00;5023225;28;20263;-78
2021/07/21 07:58:59;;;;;;;15.98;13.18;;;35.70;81.50;;;34.15;54.05;94642.63;5025155;28;20184;-75
2021/07/21 08:01:26;;;;;;;15.57;13.75;;;35.90;82.30;;;33.33;54.16;94603.28;5022349;28;20599;-77
2021/07/21 08:03:52;;;;;;;14.93;13.40;;;35.10;83.80;;;33.55;53.22;94717.63;5024929;28;20215;-78
2021/07/21 08:06:18;;;;;;;15.80;13.68;;;35.10;84.20;;;34.87;52.86;94686.09;5024103;28;20250;-76
2021/07/21 08:08:44;;;;;;;15.57;13.75;;;36.40;82.80;;;35.40;52.56;94658.25;5027785;28;20584;-75
2021/07/21 08:11:12;;;;;;;15.85;13.73;;;36.90;76.90;;;34.62;52.01;94561.44;5020602;28;20193;-74
2021/07/21 08:13:40;;;;;;;15.18;13.68;;;36.30;76.40;;;35.26;51.95;94672.91;5026179;28;20204;-75
2021/07/21 08:16:07;;;;;;;16.17;14.48;;;36.90;77.90;;;35.19;51.56;94604.00;5026748;28;20312;-75
2021/07/21 08:18:33;;;;;;;16.95;15.25;;;37.20;73.30;;;35.72;51.01;94600.91;5026181;28;20692;-75
2021/07/21 08:21:02;;;;;;;16.50;14.80;;;37.60;75.50;;;35.15;51.06;94588.69;5030936;28;20193;-74
2021/07/21 08:23:28;;;;;;;16.85;15.15;;;37.00;76.00;;;34.82;50.61;94684.50;5040932;28;20291;-75
2021/07/21 08:25:55;;;;;;;16.52;14.85;;;36.70;77.20;;;36.48;49.53;94729.59;5022596;28;20284;-74
2021/07/21 08:28:21;;;;;;;16.65;15.05;;;38.20;74.20;;;37.46;49.22;94705.59;5029964;28;20303;-74
2021/07/21 08:30:48;;;;;;;16.90;15.30;;;39.40;71.40;;;37.71;49.43;94671.22;5026160;28;20191;-74
2021/07/21 08:33:20;;;;;;;16.67;15.18;;;40.00;69.30;;;37.42;48.94;94579.53;5033729;28;20192;-74
2021/07/21 08:35:48;;;;;;;17.48;15.75;;;39.90;68.80;;;36.90;48.52;94651.75;5031725;28;20282;-74
2021/07/21 08:38:14;;;;;;;17.85;16.15;;;39.40;68.10;;;37.75;48.00;94630.41;5026543;28;20196;-75
2021/07/21 08:40:41;;;;;;;17.08;15.48;;;40.10;68.00;;;38.65;47.37;94673.56;5030927;28;20199;-74
2021/07/21 08:43:09;;;;;;;17.67;15.88;;;41.20;67.30;;;37.95;47.65;94556.50;5030334;28;20212;-76
2021/07/21 08:45:36;;;;;;;16.63;14.93;;;40.60;66.00;;;37.19;47.17;94573.97;5031713;28;20180;-75
2021/07/21 08:48:05;;;;;;;17.27;15.65;;;39.70;66.80;;;35.57;46.78;94626.19;5014103;28;20678;-73
2021/07/21 08:50:32;;;;;;;17.30;15.60;;;37.80;70.40;;;36.38;46.42;94724.94;5023240;28;20710;-74
2021/07/21 08:52:59;;;;;;;16.25;14.60;;;38.10;69.30;;;37.13;45.72;94658.59;5029045;28;20291;-74
2021/07/21 08:55:25;;;;;;;16.35;14.85;;;38.90;68.70;;;38.10;45.14;94712.94;5024464;28;20293;-75
2021/07/21 08:57:52;;;;;;;17.33;15.63;;;39.80;66.30;;;37.94;45.04;94591.72;5018384;28;20780;-74
2021/07/21 09:00:21;;;;;;;17.52;15.73;;;39.90;68.10;;;37.15;45.11;94679.09;5027517;28;20192;-76
2021/07/21 09:02:47;;;;;;;17.10;15.60;;;39.30;65.80;;;35.94;44.98;94554.53;5027999;28;20605;-74
2021/07/21 09:05:19;;;;;;;16.90;15.20;;;38.40;65.50;;;36.33;44.79;94543.84;5010817;28;20767;-75
2021/07/21 09:07:48;;;;;;;17.67;15.68;;;38.50;66.50;;;35.49;44.92;94576.59;5026204;28;20279;-75
2021/07/21 09:10:18;;;;;;;17.30;15.70;;;37.80;68.10;;;35.61;44.04;94604.94;5025792;28;20287;-72
2021/07/21 09:12:47;;;;;;;16.80;15.20;;;37.60;69.00;;;36.23;43.96;94630.38;5038577;28;20218;-73
2021/07/21 09:15:18;;;;;;;18.25;16.45;;;38.20;71.00;;;37.90;43.62;94717.59;5039306;28;20189;-73
2021/07/21 09:18:15;;;;;;;18.50;16.73;;;39.70;65.80;;;37.77;43.45;94724.91;5038123;28;20189;-72
2021/07/21 09:20:55;;;;;;;17.40;15.65;;;39.90;65.40;;;38.85;42.44;94770.69;5035851;28;20264;-72
2021/07/21 09:23:43;;;;;;;17.55;15.43;;;40.90;62.30;;;40.31;42.23;94664.34;5021126;28;20192;-73
2021/07/21 09:26:18;;;;;;;16.85;15.35;;;42.60;60.80;;;39.38;42.41;94551.19;5024404;28;20239;-73
2021/07/21 09:28:46;;;;;;;16.92;15.50;;;42.40;60.00;;;38.72;41.79;94647.69;5020170;28;20633;-72
2021/07/21 09:31:36;;;;;;;17.02;15.23;;;41.40;63.50;;;38.55;41.77;94668.25;5027584;28;20271;-73
2021/07/21 09:34:22;;;;;;;16.73;15.15;;;41.30;63.30;;;39.88;40.87;94739.63;5032518;28;20258;-73
2021/07/21 09:37:05;;;;;;;16.90;15.18;;;42.80;61.70;;;40.59;40.68;94723.25;5003921;28;20212;-73
2021/07/21 09:39:40;;;;;;;16.67;15.05;;;43.60;59.60;;;40.32;40.42;94531.72;5019042;28;20181;-71
2021/07/21 09:42:10;;;;;;;16.80;15.10;;;43.60;58.40;;;40.45;40.18;94632.63;5025782;28;20219;-72
2021/07/21 09:44:42;;;;;;;16.65;14.95;;;43.60;59.00;;;40.06;39.95;94558.56;5023123;28;20769;-71
2021/07/21 09:47:24;;;;;;;18.42;16.48;;;43.40;58.40;;;39.85;39.67;94671.03;5047810;28;20586;-72
2021/07/21 09:50:14;;;;;;;17.90;16.10;;;43.30;57.80;;;40.74;39.22;94596.47;5025683;28;20188;-72
2021/07/21 09:52:48;;;;;;;19.13;17.38;;;44.10;55.80;;;40.24;39.04;94642.28;5025423;28;20205;-73
2021/07/21 09:55:17;;;;;;;19.33;17.63;;;43.20;56.70;;;39.05;39.22;94493.31;5026045;28;20195;-72
2021/07/21 09:57:55;;;;;;;18.88;17.10;;;42.00;57.70;;;38.53;38.61;94698.38;5032803;28;20189;-71
2021/07/21 10:00:29;;;;;;;18.75;17.10;;;41.30;59.90;;;38.80;38.07;94605.53;5025254;28;20196;-71
2021/07/21 10:03:20;;;;;;;19.15;17.23;;;41.60;60.50;;;39.75;38.46;94707.41;5007727;28;20546;-73
2021/07/21 10:06:02;;;;;;;19.60;17.85;;;42.70;59.80;;;38.98;37.55;94675.28;5024225;28;20611;-73
2021/07/21 10:08:48;;;;;;;17.90;16.10;;;41.90;59.20;;;40.54;37.70;94780.16;5025222;28;20184;-72
2021/07/21 10:11:36;;;;;;;17.90;16.00;;;43.00;60.40;;;42.22;37.27;94691.41;5035495;28;20247;-72
2021/07/21 10:14:02;;;;;;;18.25;16.45;;;45.10;58.80;;;41.97;37.10;94626.09;5024303;28;20216;-72
2021/07/21 10:16:52;;;;;;;19.02;17.13;;;45.30;56.90;;;41.13;36.99;94561.94;5021228;28;20204;-72
2021/07/21 10:19:28;;;;;;;18.48;16.80;;;44.50;57.30;;;40.72;36.80;94624.72;5024823;28;20273;-76